createdAt,value
2022-10-05T00:00:57.815Z,11.58
2022-10-05T00:01:58.116Z,11.56
2022-10-05T00:02:58.069Z,11.53
2022-10-05T00:03:58.242Z,11.51
2022-10-05T00:04:58.337Z,11.49
2022-10-05T00:05:58.432Z,11.48
2022-10-05T00:06:58.670Z,11.47
2022-10-05T00:07:58.674Z,11.46
2022-10-05T00:08:58.779Z,11.46
2022-10-05T00:09:58.930Z,11.48
2022-10-05T00:10:59.058Z,11.50
2022-10-05T00:11:59.214Z,11.51
2022-10-05T00:12:59.267Z,11.52
2022-10-05T00:13:59.365Z,11.53
2022-10-05T00:14:59.542Z,11.54
2022-10-05T00:15:59.641Z,11.54
2022-10-05T00:16:59.915Z,11.55
2022-10-05T00:17:59.890Z,11.57
2022-10-05T00:19:00.006Z,11.59
2022-10-05T00:20:00.121Z,11.61
2022-10-05T00:21:00.223Z,11.64
2022-10-05T00:22:00.364Z,11.66
2022-10-05T00:23:00.455Z,11.68
2022-10-05T00:24:00.566Z,11.70
2022-10-05T00:25:00.664Z,11.72
2022-10-05T00:26:00.773Z,11.75
2022-10-05T00:27:00.896Z,11.77
2022-10-05T00:28:01.047Z,11.78
2022-10-05T00:29:01.134Z,11.79
2022-10-05T00:30:01.236Z,11.79
2022-10-05T00:31:01.355Z,11.79
2022-10-05T00:32:01.523Z,11.80
2022-10-05T00:33:01.573Z,11.80
2022-10-05T00:34:01.723Z,11.81
2022-10-05T00:35:01.837Z,11.82
2022-10-05T00:36:01.984Z,11.83
2022-10-05T00:37:02.105Z,11.84
2022-10-05T00:38:02.214Z,11.85
2022-10-05T00:39:02.361Z,11.86
2022-10-05T00:40:02.470Z,11.87
2022-10-05T00:41:02.575Z,11.89
2022-10-05T00:42:02.676Z,11.90
2022-10-05T00:43:02.742Z,11.92
2022-10-05T00:44:02.884Z,11.95
2022-10-05T00:45:02.956Z,11.97
2022-10-05T00:46:03.125Z,11.98
2022-10-05T00:47:03.255Z,11.99
2022-10-05T00:48:03.330Z,12.00
2022-10-05T00:49:03.411Z,12.01
2022-10-05T00:50:03.561Z,12.02
2022-10-05T00:51:03.700Z,12.03
2022-10-05T00:52:03.909Z,12.03
2022-10-05T00:53:03.949Z,12.03
2022-10-05T00:54:04.058Z,12.03
2022-10-05T00:55:04.159Z,12.03
2022-10-05T00:56:04.260Z,12.02
2022-10-05T00:57:04.530Z,12.02
2022-10-05T00:58:04.527Z,12.03
2022-10-05T00:59:04.653Z,12.03
2022-10-05T01:00:04.762Z,12.04
2022-10-05T01:01:04.903Z,12.04
2022-10-05T01:02:05.185Z,12.04
2022-10-05T01:03:05.152Z,12.05
2022-10-05T01:04:05.248Z,12.05
2022-10-05T01:05:05.359Z,12.05
2022-10-05T01:06:05.436Z,12.06
2022-10-05T01:07:05.685Z,12.06
2022-10-05T01:08:05.717Z,12.06
2022-10-05T01:09:05.865Z,12.07
2022-10-05T01:10:05.955Z,12.07
2022-10-05T01:11:06.116Z,12.08
2022-10-05T01:12:06.367Z,12.09
2022-10-05T01:13:06.399Z,12.09
2022-10-05T01:14:06.544Z,12.09
2022-10-05T01:15:06.695Z,12.08
2022-10-05T01:16:06.830Z,12.08
2022-10-05T01:17:06.966Z,12.06
2022-10-05T01:18:07.063Z,12.05
2022-10-05T01:19:07.177Z,12.04
2022-10-05T01:20:07.253Z,12.04
2022-10-05T01:21:07.394Z,12.03
2022-10-05T01:22:07.580Z,12.03
2022-10-05T01:23:07.661Z,12.02
2022-10-05T01:24:07.814Z,12.02
2022-10-05T01:25:07.914Z,12.01
2022-10-05T01:26:08.013Z,12.00
2022-10-05T01:27:08.165Z,11.99
2022-10-05T01:28:08.277Z,11.99
2022-10-05T01:29:08.401Z,11.99
2022-10-05T01:30:08.502Z,11.98
2022-10-05T01:31:08.715Z,11.98
2022-10-05T01:32:08.760Z,11.98
2022-10-05T01:33:08.810Z,11.98
2022-10-05T01:34:11.506Z,11.98
2022-10-05T01:35:09.070Z,11.98
2022-10-05T01:36:09.220Z,11.98
2022-10-05T01:37:09.331Z,11.98
2022-10-05T01:38:09.438Z,11.97
2022-10-05T01:39:09.570Z,11.98
2022-10-05T01:40:09.719Z,11.98
2022-10-05T01:41:09.826Z,11.99
2022-10-05T01:42:09.970Z,11.99
2022-10-05T01:43:10.078Z,11.99
2022-10-05T01:44:10.168Z,11.98
2022-10-05T01:45:10.268Z,11.97
2022-10-05T01:46:10.478Z,11.97
2022-10-05T01:47:10.595Z,11.95
2022-10-05T01:48:10.695Z,11.94
2022-10-05T01:49:10.780Z,11.92
2022-10-05T01:50:10.933Z,11.91
2022-10-05T01:51:11.029Z,11.90
2022-10-05T01:52:11.167Z,11.90
2022-10-05T01:53:11.266Z,11.89
2022-10-05T01:54:11.403Z,11.89
2022-10-05T01:55:11.552Z,11.89
2022-10-05T01:56:11.684Z,11.89
2022-10-05T01:57:11.892Z,11.89
2022-10-05T01:58:11.974Z,11.89
2022-10-05T01:59:12.074Z,11.89
2022-10-05T02:00:12.174Z,11.89
2022-10-05T02:01:12.301Z,11.89
2022-10-05T02:02:12.509Z,11.88
2022-10-05T02:03:12.523Z,11.87
2022-10-05T02:04:18.657Z,11.86
2022-10-05T02:05:13.751Z,11.84
2022-10-05T02:06:12.829Z,11.82
2022-10-05T02:07:13.020Z,11.81
2022-10-05T02:08:13.152Z,11.80
2022-10-05T02:09:13.252Z,11.80
2022-10-05T02:10:13.392Z,11.80
2022-10-05T02:11:13.543Z,11.80
2022-10-05T02:12:13.833Z,11.80
2022-10-05T02:13:13.831Z,11.79
2022-10-05T02:14:13.943Z,11.77
2022-10-05T02:15:14.033Z,11.76
2022-10-05T02:16:14.272Z,11.76
2022-10-05T02:17:14.313Z,11.75
2022-10-05T02:18:14.413Z,11.75
2022-10-05T02:19:14.544Z,11.76
2022-10-05T02:20:14.679Z,11.76
2022-10-05T02:21:14.777Z,11.76
2022-10-05T02:22:14.957Z,11.77
2022-10-05T02:23:15.087Z,11.76
2022-10-05T02:24:15.194Z,11.76
2022-10-05T02:25:15.289Z,11.76
2022-10-05T02:26:15.405Z,11.76
2022-10-05T02:27:15.527Z,11.76
2022-10-05T02:28:15.677Z,11.76
2022-10-05T02:29:15.792Z,11.76
2022-10-05T02:30:16.820Z,11.76
2022-10-05T02:31:16.052Z,11.77
2022-10-05T02:32:16.169Z,11.77
2022-10-05T02:33:16.276Z,11.77
2022-10-05T02:34:16.401Z,11.77
2022-10-05T02:35:16.567Z,11.77
2022-10-05T02:36:16.666Z,11.77
2022-10-05T02:37:16.807Z,11.77
2022-10-05T02:38:16.895Z,11.78
2022-10-05T02:39:17.053Z,11.79
2022-10-05T02:40:17.166Z,11.79
2022-10-05T02:41:17.264Z,11.79
2022-10-05T02:42:17.423Z,11.79
2022-10-05T02:43:17.522Z,11.79
2022-10-05T02:44:17.603Z,11.79
2022-10-05T02:45:17.745Z,11.78
2022-10-05T02:46:17.916Z,11.78
2022-10-05T02:47:18.044Z,11.78
2022-10-05T02:48:18.183Z,11.79
2022-10-05T02:49:18.264Z,11.79
2022-10-05T02:50:18.412Z,11.80
2022-10-05T02:51:18.523Z,11.80
2022-10-05T02:52:18.801Z,11.80
2022-10-05T02:53:18.789Z,11.80
2022-10-05T02:54:18.940Z,11.79
2022-10-05T02:55:19.041Z,11.78
2022-10-05T02:56:19.140Z,11.77
2022-10-05T02:57:19.266Z,11.76
2022-10-05T02:58:19.382Z,11.75
2022-10-05T02:59:19.482Z,11.74
2022-10-05T03:00:19.621Z,11.74
2022-10-05T03:01:19.809Z,11.74
2022-10-05T03:02:19.998Z,11.75
2022-10-05T03:03:20.009Z,11.75
2022-10-05T03:04:20.159Z,11.76
2022-10-05T03:05:20.279Z,11.78
2022-10-05T03:06:20.388Z,11.81
2022-10-05T03:07:20.537Z,11.85
2022-10-05T03:08:20.588Z,11.88
2022-10-05T03:09:20.686Z,11.91
2022-10-05T03:10:20.768Z,11.93
2022-10-05T03:11:20.909Z,11.95
2022-10-05T03:12:21.110Z,11.96
2022-10-05T03:13:21.230Z,11.98
2022-10-05T03:14:21.307Z,11.99
2022-10-05T03:15:21.447Z,12.00
2022-10-05T03:16:21.650Z,12.01
2022-10-05T03:17:21.856Z,12.01
2022-10-05T03:18:21.826Z,12.02
2022-10-05T03:19:21.969Z,12.04
2022-10-05T03:20:22.088Z,12.05
2022-10-05T03:21:22.176Z,12.06
2022-10-05T03:22:22.347Z,12.07
2022-10-05T03:23:22.446Z,12.09
2022-10-05T03:24:22.546Z,12.10
2022-10-05T03:25:22.635Z,12.12
2022-10-05T03:26:22.774Z,12.13
2022-10-05T03:27:23.005Z,12.15
2022-10-05T03:28:23.110Z,12.16
2022-10-05T03:29:23.164Z,12.17
2022-10-05T03:30:23.309Z,12.18
2022-10-05T03:31:23.506Z,12.19
2022-10-05T03:32:23.625Z,12.20
2022-10-05T03:33:23.712Z,12.21
2022-10-05T03:34:23.842Z,12.22
2022-10-05T03:35:23.962Z,12.24
2022-10-05T03:36:24.134Z,12.25
2022-10-05T03:37:24.309Z,12.26
2022-10-05T03:38:24.376Z,12.27
2022-10-05T03:39:24.484Z,12.27
2022-10-05T03:40:24.622Z,12.28
2022-10-05T03:41:24.760Z,12.27
2022-10-05T03:42:24.951Z,12.27
2022-10-05T03:43:25.061Z,12.26
2022-10-05T03:44:25.181Z,12.26
2022-10-05T03:45:25.354Z,12.25
2022-10-05T03:46:25.492Z,12.25
2022-10-05T03:47:25.629Z,12.25
2022-10-05T03:48:25.735Z,12.24
2022-10-05T03:49:25.839Z,12.24
2022-10-05T03:50:26.958Z,12.25
2022-10-05T03:51:26.108Z,12.25
2022-10-05T03:52:26.223Z,12.25
2022-10-05T03:53:26.448Z,12.26
2022-10-05T03:54:26.507Z,12.27
2022-10-05T03:55:26.607Z,12.29
2022-10-05T03:56:26.737Z,12.30
2022-10-05T03:57:26.941Z,12.31
2022-10-05T03:58:27.027Z,12.31
2022-10-05T03:59:32.202Z,12.32
2022-10-05T04:00:28.266Z,12.32
2022-10-05T04:01:27.437Z,12.33
2022-10-05T04:02:27.658Z,12.33
2022-10-05T04:03:27.658Z,12.34
2022-10-05T04:04:27.787Z,12.34
2022-10-05T04:05:27.915Z,12.34
2022-10-05T04:06:28.064Z,12.34
2022-10-05T04:07:28.205Z,12.34
2022-10-05T04:08:28.387Z,12.34
2022-10-05T04:09:28.453Z,12.35
2022-10-05T04:10:28.593Z,12.35
2022-10-05T04:11:28.740Z,12.35
2022-10-05T04:12:28.925Z,12.35
2022-10-05T04:13:29.013Z,12.35
2022-10-05T04:14:29.142Z,12.35
2022-10-05T04:15:29.306Z,12.35
2022-10-05T04:16:29.443Z,12.35
2022-10-05T04:17:29.821Z,12.34
2022-10-05T04:18:29.703Z,12.32
2022-10-05T04:19:29.862Z,12.31
2022-10-05T04:20:29.962Z,12.30
2022-10-05T04:21:30.121Z,12.30
2022-10-05T04:22:30.247Z,12.29
2022-10-05T04:23:30.361Z,12.29
2022-10-05T04:24:30.472Z,12.28
2022-10-05T04:25:30.599Z,12.28
2022-10-05T04:26:30.742Z,12.27
2022-10-05T04:27:30.949Z,12.26
2022-10-05T04:28:32.435Z,12.26
2022-10-05T04:29:31.194Z,12.26
2022-10-05T04:30:31.312Z,12.26
2022-10-05T04:31:31.515Z,12.26
2022-10-05T04:32:31.599Z,12.26
2022-10-05T04:33:31.739Z,12.26
2022-10-05T04:34:31.892Z,12.26
2022-10-05T04:35:31.999Z,12.26
2022-10-05T04:36:32.137Z,12.26
2022-10-05T04:37:32.309Z,12.25
2022-10-05T04:38:32.419Z,12.25
2022-10-05T04:39:32.528Z,12.25
2022-10-05T04:40:32.707Z,12.25
2022-10-05T04:41:33.798Z,12.25
2022-10-05T04:42:33.017Z,12.26
2022-10-05T04:43:33.080Z,12.26
2022-10-05T04:44:33.191Z,12.27
2022-10-05T04:45:33.335Z,12.27
2022-10-05T04:46:33.524Z,12.28
2022-10-05T04:47:33.637Z,12.29
2022-10-05T04:48:33.716Z,12.30
2022-10-05T04:49:33.846Z,12.31
2022-10-05T04:50:34.005Z,12.32
2022-10-05T04:51:34.143Z,12.33
2022-10-05T04:52:34.245Z,12.34
2022-10-05T04:53:34.394Z,12.35
2022-10-05T04:54:34.493Z,12.36
2022-10-05T04:55:34.619Z,12.37
2022-10-05T04:56:34.764Z,12.38
2022-10-05T04:57:34.934Z,12.39
2022-10-05T04:58:38.858Z,12.41
2022-10-05T04:59:37.154Z,12.41
2022-10-05T05:00:35.374Z,12.42
2022-10-05T05:01:35.463Z,12.42
2022-10-05T05:02:35.654Z,12.43
2022-10-05T05:03:35.766Z,12.44
2022-10-05T05:04:35.843Z,12.45
2022-10-05T05:05:44.556Z,12.46
2022-10-05T05:06:37.123Z,12.47
2022-10-05T05:07:36.281Z,12.48
2022-10-05T05:08:36.391Z,12.48
2022-10-05T05:09:36.460Z,12.48
2022-10-05T05:10:36.588Z,12.48
2022-10-05T05:11:36.690Z,12.48
2022-10-05T05:12:36.848Z,12.47
2022-10-05T05:13:36.989Z,12.47
2022-10-05T05:14:37.061Z,12.47
2022-10-05T05:15:37.140Z,12.48
2022-10-05T05:16:37.299Z,12.48
2022-10-05T05:17:37.524Z,12.47
2022-10-05T05:18:37.473Z,12.48
2022-10-05T05:19:37.569Z,12.48
2022-10-05T05:20:37.669Z,12.49
2022-10-05T05:21:37.831Z,12.50
2022-10-05T05:22:38.027Z,12.51
2022-10-05T05:23:38.052Z,12.53
2022-10-05T05:24:38.188Z,12.54
2022-10-05T05:25:38.339Z,12.56
2022-10-05T05:26:39.183Z,12.58
2022-10-05T05:27:38.638Z,12.59
2022-10-05T05:28:38.742Z,12.59
2022-10-05T05:29:38.817Z,12.60
2022-10-05T05:30:38.927Z,12.61
2022-10-05T05:31:39.091Z,12.63
2022-10-05T05:32:39.165Z,12.65
2022-10-05T05:33:39.246Z,12.67
2022-10-05T05:34:39.398Z,12.69
2022-10-05T05:35:39.509Z,12.70
2022-10-05T05:36:39.616Z,12.70
2022-10-05T05:37:39.747Z,12.71
2022-10-05T05:38:39.866Z,12.72
2022-10-05T05:39:39.986Z,12.73
2022-10-05T05:40:40.085Z,12.73
2022-10-05T05:41:40.223Z,12.74
2022-10-05T05:42:40.397Z,12.75
2022-10-05T05:43:40.493Z,12.76
2022-10-05T05:44:40.601Z,12.76
2022-10-05T05:45:40.687Z,12.76
2022-10-05T05:47:02.414Z,12.77
2022-10-05T05:47:42.019Z,12.77
2022-10-05T05:48:41.159Z,12.78
2022-10-05T05:49:41.250Z,12.79
2022-10-05T05:50:41.381Z,12.81
2022-10-05T05:51:41.530Z,12.83
2022-10-05T05:52:41.711Z,12.85
2022-10-05T05:53:41.771Z,12.87
2022-10-05T05:54:41.891Z,12.90
2022-10-05T05:55:42.004Z,12.93
2022-10-05T05:56:42.090Z,12.96
2022-10-05T05:57:42.360Z,12.98
2022-10-05T05:58:42.340Z,12.99
2022-10-05T05:59:42.510Z,13.01
2022-10-05T06:00:42.620Z,13.04
2022-10-05T06:01:44.717Z,13.06
2022-10-05T06:02:43.057Z,13.08
2022-10-05T06:03:43.030Z,13.09
2022-10-05T06:04:43.063Z,13.11
2022-10-05T06:05:43.199Z,13.14
2022-10-05T06:06:43.654Z,13.18
2022-10-05T06:07:43.509Z,13.22
2022-10-05T06:08:43.567Z,13.25
2022-10-05T06:09:43.655Z,13.27
2022-10-05T06:10:43.800Z,13.29
2022-10-05T06:11:43.937Z,13.31
2022-10-05T06:12:44.117Z,13.33
2022-10-05T06:13:44.225Z,13.35
2022-10-05T06:14:44.347Z,13.36
2022-10-05T06:15:44.459Z,13.38
2022-10-05T06:16:44.883Z,13.39
2022-10-05T06:17:44.750Z,13.40
2022-10-05T06:18:44.792Z,13.42
2022-10-05T06:19:44.947Z,13.43
2022-10-05T06:20:45.066Z,13.45
2022-10-05T06:21:45.181Z,13.46
2022-10-05T06:22:45.335Z,13.48
2022-10-05T06:23:45.452Z,13.50
2022-10-05T06:24:45.583Z,13.53
2022-10-05T06:25:45.690Z,13.54
2022-10-05T06:26:45.949Z,13.55
2022-10-05T06:27:45.991Z,13.56
2022-10-05T06:28:46.062Z,13.58
2022-10-05T06:29:46.173Z,13.59
2022-10-05T06:30:46.259Z,13.60
2022-10-05T06:31:46.486Z,13.61
2022-10-05T06:32:46.553Z,13.62
2022-10-05T06:33:46.652Z,13.63
2022-10-05T06:34:46.762Z,13.64
2022-10-05T06:35:46.885Z,13.65
2022-10-05T06:36:47.364Z,13.65
2022-10-05T06:37:47.170Z,13.66
2022-10-05T06:38:47.244Z,13.67
2022-10-05T06:39:47.322Z,13.69
2022-10-05T06:40:47.462Z,13.70
2022-10-05T06:41:47.581Z,13.72
2022-10-05T06:42:47.708Z,13.73
2022-10-05T06:43:47.808Z,13.73
2022-10-05T06:44:47.910Z,13.75
2022-10-05T06:45:48.082Z,13.76
2022-10-05T06:46:48.531Z,13.77
2022-10-05T06:47:48.239Z,13.78
2022-10-05T06:48:48.334Z,13.80
2022-10-05T06:49:48.421Z,13.83
2022-10-05T06:50:48.567Z,13.85
2022-10-05T06:51:48.649Z,13.86
2022-10-05T06:52:48.838Z,13.87
2022-10-05T06:53:48.941Z,13.88
2022-10-05T06:54:49.069Z,13.88
2022-10-05T06:55:49.180Z,13.89
2022-10-05T06:56:49.771Z,13.89
2022-10-05T06:57:49.497Z,13.90
2022-10-05T06:58:49.536Z,13.90
2022-10-05T06:59:49.697Z,13.91
2022-10-05T07:00:49.844Z,13.92
2022-10-05T07:01:50.239Z,13.94
2022-10-05T07:02:50.076Z,13.95
2022-10-05T07:03:50.197Z,13.95
2022-10-05T07:04:50.327Z,13.95
2022-10-05T07:05:50.467Z,13.95
2022-10-05T07:06:50.586Z,13.94
2022-10-05T07:07:50.718Z,13.94
2022-10-05T07:08:50.805Z,13.95
2022-10-05T07:09:50.955Z,13.96
2022-10-05T07:10:51.064Z,13.96
2022-10-05T07:11:55.815Z,13.96
2022-10-05T07:12:52.394Z,13.97
2022-10-05T07:13:51.458Z,13.99
2022-10-05T07:14:51.564Z,14.01
2022-10-05T07:15:51.653Z,14.02
2022-10-05T07:16:51.827Z,14.04
2022-10-05T07:17:51.987Z,14.05
2022-10-05T07:18:52.083Z,14.08
2022-10-05T07:19:52.233Z,14.09
2022-10-05T07:20:52.354Z,14.11
2022-10-05T07:21:52.460Z,14.14
2022-10-05T07:22:53.143Z,14.15
2022-10-05T07:23:52.712Z,14.16
2022-10-05T07:24:52.822Z,14.17
2022-10-05T07:25:52.923Z,14.19
2022-10-05T07:26:53.022Z,14.21
2022-10-05T07:27:53.276Z,14.24
2022-10-05T07:28:53.262Z,14.27
2022-10-05T07:29:53.351Z,14.28
2022-10-05T07:30:53.506Z,14.30
2022-10-05T07:31:53.599Z,14.32
2022-10-05T07:32:53.711Z,14.35
2022-10-05T07:33:53.865Z,14.38
2022-10-05T07:34:53.930Z,14.41
2022-10-05T07:35:54.029Z,14.43
2022-10-05T07:36:55.187Z,14.45
2022-10-05T07:37:54.269Z,14.48
2022-10-05T07:38:54.411Z,14.51
2022-10-05T07:40:00.700Z,14.55
2022-10-05T07:40:55.580Z,14.61
2022-10-05T07:41:54.720Z,14.65
2022-10-05T07:42:56.378Z,14.67
2022-10-05T07:44:02.571Z,14.69
2022-10-05T07:44:56.083Z,14.72
2022-10-05T07:45:55.175Z,14.78
2022-10-05T07:46:55.248Z,14.84
2022-10-05T07:47:55.370Z,14.89
2022-10-05T07:48:55.528Z,14.93
2022-10-05T07:49:55.578Z,14.99
2022-10-05T07:50:55.681Z,15.03
2022-10-05T07:51:55.777Z,15.05
2022-10-05T07:52:55.933Z,15.10
2022-10-05T07:53:56.187Z,15.17
2022-10-05T07:54:56.187Z,15.24
2022-10-05T07:55:56.285Z,15.27
2022-10-05T07:56:56.466Z,15.27
2022-10-05T07:57:56.576Z,15.25
2022-10-05T07:58:56.717Z,15.26
2022-10-05T07:59:56.779Z,15.32
2022-10-05T08:00:56.883Z,15.39
2022-10-05T08:01:57.093Z,15.45
2022-10-05T08:02:57.173Z,15.50
2022-10-05T08:03:57.307Z,15.58
2022-10-05T08:04:57.373Z,15.71
2022-10-05T08:05:57.474Z,15.83
2022-10-05T08:06:57.634Z,15.93
2022-10-05T08:07:57.745Z,16.03
2022-10-05T08:08:57.914Z,16.14
2022-10-05T08:09:57.996Z,16.29
2022-10-05T08:10:58.137Z,16.41
2022-10-05T08:11:58.285Z,16.48
2022-10-05T08:12:58.414Z,16.56
2022-10-05T08:13:58.524Z,16.66
2022-10-05T08:14:58.613Z,16.72
2022-10-05T08:15:58.817Z,16.72
2022-10-05T08:16:58.844Z,16.66
2022-10-05T08:17:58.996Z,16.61
2022-10-05T08:18:59.172Z,16.57
2022-10-05T08:19:59.203Z,16.52
2022-10-05T08:20:59.375Z,16.45
2022-10-05T08:21:59.473Z,16.35
2022-10-05T08:22:59.625Z,16.25
2022-10-05T08:23:59.773Z,16.18
2022-10-05T08:24:59.875Z,16.11
2022-10-05T08:26:00.002Z,16.04
2022-10-05T08:27:00.145Z,15.98
2022-10-05T08:28:00.368Z,15.93
2022-10-05T08:29:00.452Z,15.88
2022-10-05T08:30:00.588Z,15.83
2022-10-05T08:31:00.700Z,15.78
2022-10-05T08:32:00.803Z,15.74
2022-10-05T08:33:00.902Z,15.71
2022-10-05T08:34:01.313Z,15.69
2022-10-05T08:35:01.089Z,15.69
2022-10-05T08:36:01.229Z,15.67
2022-10-05T08:37:01.371Z,15.65
2022-10-05T08:38:01.462Z,15.62
2022-10-05T08:39:01.718Z,15.60
2022-10-05T08:40:01.751Z,15.57
2022-10-05T08:41:01.922Z,15.56
2022-10-05T08:42:02.029Z,15.56
2022-10-05T08:43:02.149Z,15.57
2022-10-05T08:44:02.311Z,15.58
2022-10-05T08:45:02.351Z,15.58
2022-10-05T08:46:02.503Z,15.59
2022-10-05T08:47:02.583Z,15.58
2022-10-05T08:48:02.679Z,15.58
2022-10-05T08:49:02.850Z,15.58
2022-10-05T08:50:02.958Z,15.60
2022-10-05T08:51:03.069Z,15.62
2022-10-05T08:52:03.149Z,15.64
2022-10-05T08:53:03.262Z,15.66
2022-10-05T08:54:03.400Z,15.68
2022-10-05T08:55:03.492Z,15.69
2022-10-05T08:56:03.579Z,15.70
2022-10-05T08:57:03.727Z,15.72
2022-10-05T08:58:03.844Z,15.74
2022-10-05T08:59:04.000Z,15.76
2022-10-05T09:00:04.098Z,15.79
2022-10-05T09:01:04.296Z,15.79
2022-10-05T09:02:04.486Z,15.78
2022-10-05T09:03:04.492Z,15.78
2022-10-05T09:04:04.608Z,15.78
2022-10-05T09:05:04.707Z,15.79
2022-10-05T09:06:04.858Z,15.81
2022-10-05T09:07:04.965Z,15.82
2022-10-05T09:08:05.075Z,15.83
2022-10-05T09:09:05.240Z,15.84
2022-10-05T09:10:05.288Z,15.86
2022-10-05T09:11:05.432Z,15.88
2022-10-05T09:12:05.526Z,15.88
2022-10-05T09:13:05.636Z,15.89
2022-10-05T09:14:05.857Z,15.90
2022-10-05T09:15:24.723Z,15.92
2022-10-05T09:16:07.019Z,15.94
2022-10-05T09:17:06.176Z,15.95
2022-10-05T09:18:06.226Z,15.95
2022-10-05T09:19:07.346Z,15.95
2022-10-05T09:20:06.435Z,15.96
2022-10-05T09:21:06.517Z,15.99
2022-10-05T09:22:06.665Z,16.01
2022-10-05T09:23:06.876Z,16.00
2022-10-05T09:24:06.954Z,15.99
2022-10-05T09:25:07.014Z,15.97
2022-10-05T09:26:07.105Z,15.97
2022-10-05T09:27:07.255Z,15.97
2022-10-05T09:28:07.449Z,15.96
2022-10-05T09:29:07.526Z,15.95
2022-10-05T09:30:07.627Z,15.96
2022-10-05T09:31:07.827Z,15.97
2022-10-05T09:32:07.905Z,15.99
2022-10-05T09:33:08.051Z,16.01
2022-10-05T09:34:08.183Z,16.02
2022-10-05T09:35:08.382Z,16.00
2022-10-05T09:36:08.383Z,15.97
2022-10-05T09:37:08.521Z,15.97
2022-10-05T09:38:08.670Z,15.96
2022-10-05T09:39:08.912Z,15.95
2022-10-05T09:40:08.924Z,15.94
2022-10-05T09:41:09.015Z,15.94
2022-10-05T09:42:09.122Z,15.95
2022-10-05T09:43:09.261Z,15.96
2022-10-05T09:44:09.410Z,15.98
2022-10-05T09:45:09.492Z,16.00
2022-10-05T09:46:09.703Z,16.03
2022-10-05T09:47:09.771Z,16.07
2022-10-05T09:48:09.906Z,16.12
2022-10-05T09:49:10.081Z,16.16
2022-10-05T09:50:10.179Z,16.19
2022-10-05T09:51:10.242Z,16.21
2022-10-05T09:52:13.083Z,16.21
2022-10-05T09:53:10.520Z,16.20
2022-10-05T09:54:10.655Z,16.20
2022-10-05T09:55:10.751Z,16.21
2022-10-05T09:56:10.860Z,16.25
2022-10-05T09:57:10.961Z,16.30
2022-10-05T09:58:11.109Z,16.37
2022-10-05T09:59:11.300Z,16.44
2022-10-05T10:00:11.351Z,16.50
2022-10-05T10:01:29.024Z,16.56
2022-10-05T10:02:12.707Z,16.61
2022-10-05T10:03:11.745Z,16.65
2022-10-05T10:04:11.868Z,16.69
2022-10-05T10:05:11.910Z,16.72
2022-10-05T10:06:12.019Z,16.75
2022-10-05T10:07:12.128Z,16.78
2022-10-05T10:08:12.249Z,16.82
2022-10-05T10:09:12.379Z,16.88
2022-10-05T10:10:12.469Z,16.95
2022-10-05T10:11:12.608Z,16.98
2022-10-05T10:12:12.769Z,17.03
2022-10-05T10:13:12.878Z,17.12
2022-10-05T10:14:13.011Z,17.20
2022-10-05T10:15:13.138Z,17.25
2022-10-05T10:16:13.423Z,17.29
2022-10-05T10:17:13.402Z,17.33
2022-10-05T10:18:13.545Z,17.37
2022-10-05T10:19:13.688Z,17.42
2022-10-05T10:20:13.708Z,17.49
2022-10-05T10:21:13.858Z,17.57
2022-10-05T10:22:13.965Z,17.65
2022-10-05T10:23:14.047Z,17.68
2022-10-05T10:24:14.236Z,17.70
2022-10-05T10:25:14.347Z,17.73
2022-10-05T10:26:14.456Z,17.78
2022-10-05T10:27:14.575Z,17.87
2022-10-05T10:28:14.720Z,17.96
2022-10-05T10:29:14.874Z,18.04
2022-10-05T10:30:14.934Z,18.09
2022-10-05T10:31:15.108Z,18.14
2022-10-05T10:32:15.176Z,18.20
2022-10-05T10:33:15.284Z,18.24
2022-10-05T10:34:15.458Z,18.24
2022-10-05T10:35:15.551Z,18.25
2022-10-05T10:36:15.659Z,18.26
2022-10-05T10:37:15.756Z,18.30
2022-10-05T10:38:15.856Z,18.36
2022-10-05T10:39:16.006Z,18.40
2022-10-05T10:40:16.170Z,18.38
2022-10-05T10:41:16.236Z,18.34
2022-10-05T10:42:16.386Z,18.31
2022-10-05T10:43:16.537Z,18.32
2022-10-05T10:44:16.687Z,18.33
2022-10-05T10:45:16.782Z,18.34
2022-10-05T10:46:16.914Z,18.36
2022-10-05T10:47:17.013Z,18.36
2022-10-05T10:48:17.172Z,18.37
2022-10-05T10:49:17.280Z,18.40
2022-10-05T10:50:17.390Z,18.46
2022-10-05T10:51:17.524Z,18.54
2022-10-05T10:52:17.666Z,18.59
2022-10-05T10:53:17.762Z,18.62
2022-10-05T10:54:17.912Z,18.66
2022-10-05T10:55:17.996Z,18.68
2022-10-05T10:56:18.163Z,18.68
2022-10-05T10:57:18.244Z,18.66
2022-10-05T10:58:18.430Z,18.63
2022-10-05T10:59:18.554Z,18.58
2022-10-05T11:00:18.601Z,18.53
2022-10-05T11:01:18.717Z,18.52
2022-10-05T11:02:18.865Z,18.52
2022-10-05T11:03:18.964Z,18.53
2022-10-05T11:04:19.084Z,18.56
2022-10-05T11:05:19.206Z,18.60
2022-10-05T11:06:19.324Z,18.66
2022-10-05T11:07:19.474Z,18.73
2022-10-05T11:08:19.602Z,18.79
2022-10-05T11:09:19.713Z,18.84
2022-10-05T11:10:19.802Z,18.89
2022-10-05T11:11:19.893Z,18.94
2022-10-05T11:12:20.023Z,19.00
2022-10-05T11:13:20.178Z,19.07
2022-10-05T11:14:20.282Z,19.16
2022-10-05T11:15:20.382Z,19.29
2022-10-05T11:16:20.495Z,19.43
2022-10-05T11:17:20.592Z,19.57
2022-10-05T11:18:20.741Z,19.67
2022-10-05T11:19:20.987Z,19.73
2022-10-05T11:20:20.961Z,19.75
2022-10-05T11:21:21.045Z,19.72
2022-10-05T11:22:21.201Z,19.67
2022-10-05T11:23:21.307Z,19.65
2022-10-05T11:24:21.441Z,19.68
2022-10-05T11:25:21.538Z,19.76
2022-10-05T11:26:21.659Z,19.82
2022-10-05T11:28:21.988Z,19.86
2022-10-05T11:29:22.030Z,19.88
2022-10-05T11:30:22.134Z,19.87
2022-10-05T11:31:22.262Z,19.86
2022-10-05T11:32:22.349Z,19.87
2022-10-05T11:33:22.452Z,19.91
2022-10-05T11:34:22.602Z,19.94
2022-10-05T11:35:22.700Z,19.94
2022-10-05T11:36:22.800Z,19.91
2022-10-05T11:37:22.879Z,19.86
2022-10-05T11:38:23.031Z,19.84
2022-10-05T11:39:23.170Z,19.85
2022-10-05T11:40:23.262Z,19.88
2022-10-05T11:41:23.389Z,19.94
2022-10-05T11:42:23.529Z,20.02
2022-10-05T11:43:23.667Z,20.10
2022-10-05T11:44:23.790Z,20.16
2022-10-05T11:45:23.881Z,20.22
2022-10-05T11:46:24.048Z,20.29
2022-10-05T11:47:24.179Z,20.34
2022-10-05T11:48:24.278Z,20.35
2022-10-05T11:49:24.439Z,20.35
2022-10-05T11:50:24.548Z,20.38
2022-10-05T11:51:28.627Z,20.43
2022-10-05T11:52:24.778Z,20.43
2022-10-05T11:53:24.920Z,20.41
2022-10-05T11:54:25.067Z,20.39
2022-10-05T11:55:25.217Z,20.39
2022-10-05T11:56:25.378Z,20.43
2022-10-05T11:57:25.440Z,20.44
2022-10-05T11:58:25.567Z,20.41
2022-10-05T11:59:25.725Z,20.39
2022-10-05T12:00:25.807Z,20.40
2022-10-05T12:01:25.908Z,20.45
2022-10-05T12:02:26.007Z,20.53
2022-10-05T12:03:26.175Z,20.62
2022-10-05T12:04:26.378Z,20.70
2022-10-05T12:05:26.377Z,20.77
2022-10-05T12:06:26.456Z,20.83
2022-10-05T12:07:26.597Z,20.90
2022-10-05T12:08:26.707Z,21.00
2022-10-05T12:09:26.846Z,21.10
2022-10-05T12:10:26.955Z,21.20
2022-10-05T12:11:27.057Z,21.26
2022-10-05T12:12:27.223Z,21.31
2022-10-05T12:13:27.339Z,21.34
2022-10-05T12:14:27.444Z,21.29
2022-10-05T12:15:27.525Z,21.25
2022-10-05T12:16:27.798Z,21.22
2022-10-05T12:17:27.795Z,21.19
2022-10-05T12:18:27.954Z,21.21
2022-10-05T12:19:28.161Z,21.29
2022-10-05T12:20:28.184Z,21.31
2022-10-05T12:21:28.303Z,21.30
2022-10-05T12:22:28.401Z,21.32
2022-10-05T12:23:28.512Z,21.33
2022-10-05T12:24:28.655Z,21.33
2022-10-05T12:25:28.742Z,21.34
2022-10-05T12:26:28.883Z,21.36
2022-10-05T12:27:29.014Z,21.36
2022-10-05T12:28:29.200Z,21.34
2022-10-05T12:29:29.302Z,21.30
2022-10-05T12:30:29.417Z,21.24
2022-10-05T12:31:29.567Z,21.16
2022-10-05T12:32:29.640Z,21.12
2022-10-05T12:33:29.743Z,21.15
2022-10-05T12:34:29.854Z,21.21
2022-10-05T12:35:47.030Z,21.27
2022-10-05T12:36:46.224Z,21.30
2022-10-05T12:37:31.223Z,21.29
2022-10-05T12:38:30.326Z,21.33
2022-10-05T12:39:30.637Z,21.42
2022-10-05T12:40:30.582Z,21.48
2022-10-05T12:41:30.959Z,21.46
2022-10-05T12:42:30.843Z,21.42
2022-10-05T12:43:30.950Z,21.40
2022-10-05T12:44:31.091Z,21.42
2022-10-05T12:45:31.230Z,21.45
2022-10-05T12:46:31.313Z,21.49
2022-10-05T12:47:31.441Z,21.56
2022-10-05T12:48:31.594Z,21.60
2022-10-05T12:49:31.753Z,21.61
2022-10-05T12:50:31.821Z,21.59
2022-10-05T12:51:31.923Z,21.56
2022-10-05T12:52:32.028Z,21.56
2022-10-05T12:53:32.140Z,21.58
2022-10-05T12:54:32.340Z,21.57
2022-10-05T12:55:32.382Z,21.56